sensor_id;sensor_type;location;lat;lon;timestamp;P1;durP1;ratioP1;P2;durP2;ratioP2
50301;SDS011;36550;50.472;19.744;2023-08-21T00:00:34;15.70;;;11.90;;
50301;SDS011;36550;50.472;19.744;2023-08-21T00:03:18;14.60;;;12.00;;
50301;SDS011;36550;50.472;19.744;2023-08-21T00:06:02;15.70;;;12.70;;
50301;SDS011;36550;50.472;19.744;2023-08-21T00:08:46;17.30;;;12.20;;
50301;SDS011;36550;50.472;19.744;2023-08-21T00:11:30;14.70;;;11.60;;
50301;SDS011;36550;50.472;19.744;2023-08-21T00:14:14;15.00;;;12.30;;
50301;SDS011;36550;50.472;19.744;2023-08-21T00:16:58;18.80;;;11.90;;
50301;SDS011;36550;50.472;19.744;2023-08-21T00:19:42;14.80;;;11.50;;
50301;SDS011;36550;50.472;19.744;2023-08-21T00:22:26;20.40;;;12.60;;
50301;SDS011;36550;50.472;19.744;2023-08-21T00:25:10;15.90;;;12.20;;
50301;SDS011;36550;50.472;19.744;2023-08-21T00:27:54;18.70;;;11.30;;
50301;SDS011;36550;50.472;19.744;2023-08-21T00:30:38;15.20;;;11.60;;
50301;SDS011;36550;50.472;19.744;2023-08-21T00:33:23;15.10;;;12.20;;
50301;SDS011;36550;50.472;19.744;2023-08-21T00:36:07;16.90;;;12.60;;
50301;SDS011;36550;50.472;19.744;2023-08-21T00:38:51;17.30;;;12.40;;
50301;SDS011;36550;50.472;19.744;2023-08-21T00:41:35;17.10;;;12.40;;
50301;SDS011;36550;50.472;19.744;2023-08-21T00:44:19;15.60;;;11.70;;
50301;SDS011;36550;50.472;19.744;2023-08-21T00:47:03;14.20;;;10.90;;
50301;SDS011;36550;50.472;19.744;2023-08-21T00:49:48;17.40;;;11.10;;
50301;SDS011;36550;50.472;19.744;2023-08-21T00:52:32;14.40;;;11.70;;
50301;SDS011;36550;50.472;19.744;2023-08-21T00:58:02;16.00;;;12.30;;
50301;SDS011;36550;50.472;19.744;2023-08-21T01:06:18;15.50;;;12.40;;
50301;SDS011;36550;50.472;19.744;2023-08-21T01:09:07;15.50;;;12.30;;
50301;SDS011;36550;50.472;19.744;2023-08-21T01:12:14;15.60;;;12.20;;
50301;SDS011;36550;50.472;19.744;2023-08-21T01:15:01;16.20;;;11.60;;
50301;SDS011;36550;50.472;19.744;2023-08-21T01:17:49;15.90;;;12.40;;
50301;SDS011;36550;50.472;19.744;2023-08-21T01:23:37;20.90;;;12.50;;
50301;SDS011;36550;50.472;19.744;2023-08-21T01:26:22;14.50;;;12.00;;
50301;SDS011;36550;50.472;19.744;2023-08-21T01:29:06;17.40;;;12.80;;
50301;SDS011;36550;50.472;19.744;2023-08-21T01:32:13;15.80;;;13.00;;
50301;SDS011;36550;50.472;19.744;2023-08-21T01:34:57;17.80;;;13.60;;
50301;SDS011;36550;50.472;19.744;2023-08-21T01:37:43;17.00;;;12.00;;
50301;SDS011;36550;50.472;19.744;2023-08-21T01:40:27;15.30;;;11.80;;
50301;SDS011;36550;50.472;19.744;2023-08-21T01:43:11;16.00;;;12.70;;
50301;SDS011;36550;50.472;19.744;2023-08-21T01:45:55;18.30;;;11.90;;
50301;SDS011;36550;50.472;19.744;2023-08-21T01:48:39;15.30;;;11.80;;
50301;SDS011;36550;50.472;19.744;2023-08-21T01:51:23;14.90;;;11.70;;
50301;SDS011;36550;50.472;19.744;2023-08-21T01:54:07;16.10;;;11.80;;
50301;SDS011;36550;50.472;19.744;2023-08-21T01:56:51;15.10;;;12.10;;
50301;SDS011;36550;50.472;19.744;2023-08-21T01:59:35;16.80;;;12.30;;
50301;SDS011;36550;50.472;19.744;2023-08-21T02:02:19;17.60;;;12.80;;
50301;SDS011;36550;50.472;19.744;2023-08-21T02:05:04;13.20;;;11.40;;
50301;SDS011;36550;50.472;19.744;2023-08-21T02:07:48;15.10;;;12.20;;
50301;SDS011;36550;50.472;19.744;2023-08-21T02:10:32;13.90;;;12.10;;
50301;SDS011;36550;50.472;19.744;2023-08-21T02:13:17;15.70;;;12.30;;
50301;SDS011;36550;50.472;19.744;2023-08-21T02:16:02;14.60;;;12.00;;
50301;SDS011;36550;50.472;19.744;2023-08-21T02:18:46;14.90;;;12.50;;
50301;SDS011;36550;50.472;19.744;2023-08-21T02:21:31;15.90;;;13.00;;
50301;SDS011;36550;50.472;19.744;2023-08-21T02:24:15;16.10;;;12.50;;
50301;SDS011;36550;50.472;19.744;2023-08-21T02:26:59;17.30;;;12.30;;
50301;SDS011;36550;50.472;19.744;2023-08-21T02:29:44;18.70;;;12.00;;
50301;SDS011;36550;50.472;19.744;2023-08-21T02:32:28;15.80;;;12.30;;
50301;SDS011;36550;50.472;19.744;2023-08-21T02:35:12;16.40;;;12.00;;
50301;SDS011;36550;50.472;19.744;2023-08-21T02:37:57;18.70;;;13.20;;
50301;SDS011;36550;50.472;19.744;2023-08-21T02:40:41;15.00;;;12.40;;
50301;SDS011;36550;50.472;19.744;2023-08-21T02:43:25;14.30;;;12.70;;
50301;SDS011;36550;50.472;19.744;2023-08-21T02:46:09;18.30;;;12.60;;
50301;SDS011;36550;50.472;19.744;2023-08-21T02:48:53;13.60;;;12.00;;
50301;SDS011;36550;50.472;19.744;2023-08-21T02:51:37;17.10;;;12.90;;
50301;SDS011;36550;50.472;19.744;2023-08-21T02:54:21;16.20;;;12.10;;
50301;SDS011;36550;50.472;19.744;2023-08-21T02:57:06;17.00;;;12.20;;
50301;SDS011;36550;50.472;19.744;2023-08-21T02:59:49;15.40;;;12.60;;
50301;SDS011;36550;50.472;19.744;2023-08-21T03:02:34;16.40;;;13.20;;
50301;SDS011;36550;50.472;19.744;2023-08-21T03:05:18;16.00;;;12.70;;
50301;SDS011;36550;50.472;19.744;2023-08-21T03:08:03;17.10;;;13.30;;
50301;SDS011;36550;50.472;19.744;2023-08-21T03:10:47;14.80;;;13.10;;
50301;SDS011;36550;50.472;19.744;2023-08-21T03:13:32;16.10;;;12.60;;
50301;SDS011;36550;50.472;19.744;2023-08-21T03:16:15;14.70;;;12.50;;
50301;SDS011;36550;50.472;19.744;2023-08-21T03:19:00;17.10;;;12.40;;
50301;SDS011;36550;50.472;19.744;2023-08-21T03:21:44;16.10;;;12.20;;
50301;SDS011;36550;50.472;19.744;2023-08-21T03:24:28;19.40;;;12.70;;
50301;SDS011;36550;50.472;19.744;2023-08-21T03:27:14;16.60;;;13.00;;
50301;SDS011;36550;50.472;19.744;2023-08-21T03:29:59;15.80;;;12.60;;
50301;SDS011;36550;50.472;19.744;2023-08-21T03:32:44;16.10;;;12.40;;
50301;SDS011;36550;50.472;19.744;2023-08-21T03:35:28;17.30;;;12.50;;
50301;SDS011;36550;50.472;19.744;2023-08-21T03:38:12;19.80;;;13.00;;
50301;SDS011;36550;50.472;19.744;2023-08-21T03:40:56;17.00;;;12.50;;
50301;SDS011;36550;50.472;19.744;2023-08-21T03:43:40;20.00;;;12.50;;
50301;SDS011;36550;50.472;19.744;2023-08-21T03:46:24;17.90;;;12.50;;
50301;SDS011;36550;50.472;19.744;2023-08-21T03:49:08;18.50;;;12.20;;
50301;SDS011;36550;50.472;19.744;2023-08-21T03:51:52;16.70;;;12.40;;
50301;SDS011;36550;50.472;19.744;2023-08-21T03:54:36;16.00;;;12.20;;
50301;SDS011;36550;50.472;19.744;2023-08-21T03:57:20;16.00;;;13.20;;
50301;SDS011;36550;50.472;19.744;2023-08-21T04:00:04;16.80;;;12.10;;
50301;SDS011;36550;50.472;19.744;2023-08-21T04:02:51;19.10;;;13.40;;
50301;SDS011;36550;50.472;19.744;2023-08-21T04:05:36;18.60;;;13.50;;
50301;SDS011;36550;50.472;19.744;2023-08-21T04:08:21;16.60;;;13.80;;
50301;SDS011;36550;50.472;19.744;2023-08-21T04:11:06;18.30;;;14.30;;
50301;SDS011;36550;50.472;19.744;2023-08-21T04:13:50;18.40;;;13.20;;
50301;SDS011;36550;50.472;19.744;2023-08-21T04:16:34;16.50;;;12.60;;
50301;SDS011;36550;50.472;19.744;2023-08-21T04:19:18;15.80;;;13.90;;
50301;SDS011;36550;50.472;19.744;2023-08-21T04:22:02;14.90;;;12.30;;
50301;SDS011;36550;50.472;19.744;2023-08-21T04:24:46;19.70;;;12.50;;
50301;SDS011;36550;50.472;19.744;2023-08-21T04:27:30;16.90;;;12.40;;
50301;SDS011;36550;50.472;19.744;2023-08-21T04:30:14;15.50;;;12.60;;
50301;SDS011;36550;50.472;19.744;2023-08-21T04:32:59;18.40;;;12.90;;
50301;SDS011;36550;50.472;19.744;2023-08-21T04:35:43;15.70;;;13.60;;
50301;SDS011;36550;50.472;19.744;2023-08-21T04:38:27;16.00;;;12.10;;
50301;SDS011;36550;50.472;19.744;2023-08-21T04:41:11;15.00;;;11.90;;
50301;SDS011;36550;50.472;19.744;2023-08-21T04:43:55;15.50;;;12.90;;
50301;SDS011;36550;50.472;19.744;2023-08-21T04:46:39;16.60;;;12.80;;
50301;SDS011;36550;50.472;19.744;2023-08-21T04:49:23;16.20;;;12.70;;
50301;SDS011;36550;50.472;19.744;2023-08-21T04:52:07;18.30;;;14.20;;
50301;SDS011;36550;50.472;19.744;2023-08-21T04:54:52;20.80;;;14.40;;
50301;SDS011;36550;50.472;19.744;2023-08-21T04:57:36;16.90;;;13.00;;
50301;SDS011;36550;50.472;19.744;2023-08-21T05:00:20;17.70;;;13.60;;
50301;SDS011;36550;50.472;19.744;2023-08-21T05:03:05;19.90;;;12.80;;
50301;SDS011;36550;50.472;19.744;2023-08-21T05:08:38;17.30;;;12.50;;
50301;SDS011;36550;50.472;19.744;2023-08-21T05:11:22;14.90;;;13.10;;
50301;SDS011;36550;50.472;19.744;2023-08-21T05:14:06;17.90;;;12.30;;
50301;SDS011;36550;50.472;19.744;2023-08-21T05:16:50;18.50;;;13.00;;
50301;SDS011;36550;50.472;19.744;2023-08-21T05:19:34;17.40;;;13.10;;
50301;SDS011;36550;50.472;19.744;2023-08-21T05:22:18;17.00;;;12.20;;
50301;SDS011;36550;50.472;19.744;2023-08-21T05:25:02;15.00;;;12.50;;
50301;SDS011;36550;50.472;19.744;2023-08-21T05:27:47;14.50;;;12.20;;
50301;SDS011;36550;50.472;19.744;2023-08-21T05:30:30;17.60;;;12.40;;
50301;SDS011;36550;50.472;19.744;2023-08-21T05:33:15;17.60;;;12.50;;
50301;SDS011;36550;50.472;19.744;2023-08-21T05:35:59;17.10;;;12.60;;
50301;SDS011;36550;50.472;19.744;2023-08-21T05:38:43;16.70;;;12.90;;
50301;SDS011;36550;50.472;19.744;2023-08-21T05:41:27;15.90;;;13.30;;
50301;SDS011;36550;50.472;19.744;2023-08-21T05:44:11;14.70;;;12.20;;
50301;SDS011;36550;50.472;19.744;2023-08-21T05:46:55;19.20;;;13.30;;
50301;SDS011;36550;50.472;19.744;2023-08-21T05:49:39;15.70;;;12.20;;
50301;SDS011;36550;50.472;19.744;2023-08-21T05:52:23;20.90;;;13.20;;
50301;SDS011;36550;50.472;19.744;2023-08-21T05:55:07;18.30;;;13.70;;
50301;SDS011;36550;50.472;19.744;2023-08-21T05:57:52;18.90;;;13.70;;
50301;SDS011;36550;50.472;19.744;2023-08-21T06:00:38;20.00;;;14.80;;
50301;SDS011;36550;50.472;19.744;2023-08-21T06:03:22;20.50;;;14.60;;
50301;SDS011;36550;50.472;19.744;2023-08-21T06:06:07;20.20;;;14.50;;
50301;SDS011;36550;50.472;19.744;2023-08-21T06:08:51;18.20;;;14.90;;
50301;SDS011;36550;50.472;19.744;2023-08-21T06:11:35;21.60;;;14.30;;
50301;SDS011;36550;50.472;19.744;2023-08-21T06:14:19;21.10;;;15.40;;
50301;SDS011;36550;50.472;19.744;2023-08-21T06:17:04;21.70;;;16.00;;
50301;SDS011;36550;50.472;19.744;2023-08-21T06:19:49;19.70;;;15.20;;
50301;SDS011;36550;50.472;19.744;2023-08-21T06:22:33;26.30;;;16.30;;
50301;SDS011;36550;50.472;19.744;2023-08-21T06:25:17;22.30;;;16.00;;
50301;SDS011;36550;50.472;19.744;2023-08-21T06:28:03;23.00;;;14.80;;
50301;SDS011;36550;50.472;19.744;2023-08-21T06:30:55;20.50;;;15.20;;
50301;SDS011;36550;50.472;19.744;2023-08-21T06:33:41;17.80;;;14.80;;
50301;SDS011;36550;50.472;19.744;2023-08-21T06:36:25;24.60;;;17.20;;
50301;SDS011;36550;50.472;19.744;2023-08-21T06:39:09;25.20;;;15.40;;
50301;SDS011;36550;50.472;19.744;2023-08-21T06:41:53;26.80;;;17.10;;
50301;SDS011;36550;50.472;19.744;2023-08-21T06:44:37;22.10;;;16.60;;
50301;SDS011;36550;50.472;19.744;2023-08-21T06:47:21;23.50;;;15.90;;
50301;SDS011;36550;50.472;19.744;2023-08-21T06:50:05;24.80;;;17.00;;
50301;SDS011;36550;50.472;19.744;2023-08-21T06:52:49;24.60;;;17.10;;
50301;SDS011;36550;50.472;19.744;2023-08-21T06:55:33;22.00;;;17.20;;
50301;SDS011;36550;50.472;19.744;2023-08-21T06:58:17;42.40;;;24.80;;
50301;SDS011;36550;50.472;19.744;2023-08-21T07:01:02;66.00;;;36.50;;
50301;SDS011;36550;50.472;19.744;2023-08-21T07:03:45;56.70;;;32.40;;
50301;SDS011;36550;50.472;19.744;2023-08-21T07:06:30;56.40;;;31.90;;
50301;SDS011;36550;50.472;19.744;2023-08-21T07:09:15;62.30;;;29.80;;
50301;SDS011;36550;50.472;19.744;2023-08-21T07:11:59;59.00;;;30.10;;
50301;SDS011;36550;50.472;19.744;2023-08-21T07:14:43;52.10;;;28.40;;
50301;SDS011;36550;50.472;19.744;2023-08-21T07:17:27;54.40;;;28.60;;
50301;SDS011;36550;50.472;19.744;2023-08-21T07:20:11;39.70;;;24.60;;
50301;SDS011;36550;50.472;19.744;2023-08-21T07:22:55;46.30;;;24.50;;
50301;SDS011;36550;50.472;19.744;2023-08-21T07:25:40;34.90;;;22.40;;
50301;SDS011;36550;50.472;19.744;2023-08-21T07:28:24;33.20;;;19.20;;
50301;SDS011;36550;50.472;19.744;2023-08-21T07:31:08;26.30;;;16.90;;
50301;SDS011;36550;50.472;19.744;2023-08-21T07:33:53;21.10;;;15.50;;
50301;SDS011;36550;50.472;19.744;2023-08-21T07:36:37;19.50;;;14.30;;
50301;SDS011;36550;50.472;19.744;2023-08-21T07:39:21;17.20;;;13.40;;
50301;SDS011;36550;50.472;19.744;2023-08-21T07:42:05;15.60;;;13.20;;
50301;SDS011;36550;50.472;19.744;2023-08-21T07:44:50;19.20;;;14.00;;
50301;SDS011;36550;50.472;19.744;2023-08-21T07:47:33;17.70;;;13.50;;
50301;SDS011;36550;50.472;19.744;2023-08-21T07:50:18;17.80;;;13.30;;
50301;SDS011;36550;50.472;19.744;2023-08-21T07:53:02;18.30;;;13.30;;
50301;SDS011;36550;50.472;19.744;2023-08-21T07:55:47;16.60;;;14.80;;
50301;SDS011;36550;50.472;19.744;2023-08-21T07:58:31;15.30;;;13.10;;
50301;SDS011;36550;50.472;19.744;2023-08-21T08:01:16;17.40;;;14.30;;
50301;SDS011;36550;50.472;19.744;2023-08-21T08:03:59;18.40;;;13.70;;
50301;SDS011;36550;50.472;19.744;2023-08-21T08:06:44;16.70;;;14.00;;
50301;SDS011;36550;50.472;19.744;2023-08-21T08:09:28;15.30;;;13.20;;
50301;SDS011;36550;50.472;19.744;2023-08-21T08:12:12;17.10;;;14.20;;
50301;SDS011;36550;50.472;19.744;2023-08-21T08:14:56;16.20;;;13.80;;
50301;SDS011;36550;50.472;19.744;2023-08-21T08:17:41;17.00;;;13.60;;
50301;SDS011;36550;50.472;19.744;2023-08-21T08:20:25;16.90;;;13.80;;
50301;SDS011;36550;50.472;19.744;2023-08-21T08:23:09;15.20;;;13.00;;
50301;SDS011;36550;50.472;19.744;2023-08-21T08:25:53;19.20;;;14.30;;
50301;SDS011;36550;50.472;19.744;2023-08-21T08:28:37;18.10;;;15.00;;
50301;SDS011;36550;50.472;19.744;2023-08-21T08:31:21;17.90;;;14.40;;
50301;SDS011;36550;50.472;19.744;2023-08-21T08:34:07;19.60;;;14.00;;
50301;SDS011;36550;50.472;19.744;2023-08-21T08:36:51;17.60;;;13.50;;
50301;SDS011;36550;50.472;19.744;2023-08-21T08:39:35;14.20;;;12.70;;
50301;SDS011;36550;50.472;19.744;2023-08-21T08:42:19;15.50;;;13.50;;
50301;SDS011;36550;50.472;19.744;2023-08-21T08:45:04;18.00;;;13.70;;
50301;SDS011;36550;50.472;19.744;2023-08-21T08:47:48;14.70;;;12.90;;
50301;SDS011;36550;50.472;19.744;2023-08-21T08:50:33;16.70;;;13.50;;
50301;SDS011;36550;50.472;19.744;2023-08-21T08:53:18;17.10;;;13.30;;
50301;SDS011;36550;50.472;19.744;2023-08-21T08:56:03;16.60;;;13.40;;
50301;SDS011;36550;50.472;19.744;2023-08-21T08:58:47;15.40;;;13.50;;
50301;SDS011;36550;50.472;19.744;2023-08-21T09:01:31;18.30;;;13.50;;
50301;SDS011;36550;50.472;19.744;2023-08-21T09:04:16;16.70;;;14.50;;
50301;SDS011;36550;50.472;19.744;2023-08-21T09:07:10;17.50;;;15.20;;
50301;SDS011;36550;50.472;19.744;2023-08-21T09:12:40;18.90;;;13.80;;
50301;SDS011;36550;50.472;19.744;2023-08-21T09:15:27;17.50;;;14.30;;
50301;SDS011;36550;50.472;19.744;2023-08-21T09:18:13;16.60;;;12.40;;
50301;SDS011;36550;50.472;19.744;2023-08-21T09:21:01;16.20;;;12.50;;
50301;SDS011;36550;50.472;19.744;2023-08-21T09:23:46;18.30;;;11.90;;
50301;SDS011;36550;50.472;19.744;2023-08-21T09:26:32;17.20;;;13.00;;
50301;SDS011;36550;50.472;19.744;2023-08-21T09:29:16;18.50;;;13.30;;
50301;SDS011;36550;50.472;19.744;2023-08-21T09:32:01;18.00;;;13.30;;
50301;SDS011;36550;50.472;19.744;2023-08-21T09:34:46;16.20;;;12.40;;
50301;SDS011;36550;50.472;19.744;2023-08-21T09:37:30;15.20;;;12.00;;
50301;SDS011;36550;50.472;19.744;2023-08-21T09:40:17;16.80;;;13.10;;
50301;SDS011;36550;50.472;19.744;2023-08-21T09:43:01;16.20;;;12.90;;
50301;SDS011;36550;50.472;19.744;2023-08-21T09:45:47;18.40;;;13.90;;
50301;SDS011;36550;50.472;19.744;2023-08-21T09:48:34;18.80;;;14.70;;
50301;SDS011;36550;50.472;19.744;2023-08-21T09:51:19;17.10;;;14.20;;
50301;SDS011;36550;50.472;19.744;2023-08-21T09:54:04;16.80;;;13.60;;
50301;SDS011;36550;50.472;19.744;2023-08-21T09:56:50;16.00;;;13.20;;
50301;SDS011;36550;50.472;19.744;2023-08-21T09:59:35;15.00;;;12.40;;
50301;SDS011;36550;50.472;19.744;2023-08-21T10:02:20;15.20;;;12.30;;
50301;SDS011;36550;50.472;19.744;2023-08-21T10:05:06;14.10;;;12.20;;
50301;SDS011;36550;50.472;19.744;2023-08-21T10:07:51;15.00;;;12.80;;
50301;SDS011;36550;50.472;19.744;2023-08-21T10:10:38;16.10;;;13.30;;
50301;SDS011;36550;50.472;19.744;2023-08-21T10:13:22;20.50;;;13.70;;
50301;SDS011;36550;50.472;19.744;2023-08-21T10:16:07;16.30;;;13.40;;
50301;SDS011;36550;50.472;19.744;2023-08-21T10:18:55;15.00;;;12.50;;
50301;SDS011;36550;50.472;19.744;2023-08-21T10:21:39;14.80;;;13.20;;
50301;SDS011;36550;50.472;19.744;2023-08-21T10:24:27;17.90;;;12.90;;
50301;SDS011;36550;50.472;19.744;2023-08-21T10:27:15;14.10;;;12.60;;
50301;SDS011;36550;50.472;19.744;2023-08-21T10:30:14;13.10;;;11.80;;
50301;SDS011;36550;50.472;19.744;2023-08-21T10:33:03;12.70;;;11.00;;
50301;SDS011;36550;50.472;19.744;2023-08-21T10:35:47;14.90;;;11.00;;
50301;SDS011;36550;50.472;19.744;2023-08-21T10:38:31;19.20;;;11.70;;
50301;SDS011;36550;50.472;19.744;2023-08-21T10:41:15;16.00;;;10.80;;
50301;SDS011;36550;50.472;19.744;2023-08-21T10:43:59;17.50;;;12.00;;
50301;SDS011;36550;50.472;19.744;2023-08-21T10:46:51;12.90;;;11.10;;
50301;SDS011;36550;50.472;19.744;2023-08-21T10:49:35;13.00;;;11.20;;
50301;SDS011;36550;50.472;19.744;2023-08-21T10:52:29;12.50;;;11.30;;
50301;SDS011;36550;50.472;19.744;2023-08-21T10:55:16;15.10;;;13.00;;
50301;SDS011;36550;50.472;19.744;2023-08-21T10:58:04;12.10;;;10.60;;
50301;SDS011;36550;50.472;19.744;2023-08-21T11:00:58;12.10;;;10.90;;
50301;SDS011;36550;50.472;19.744;2023-08-21T11:03:46;11.10;;;10.00;;
50301;SDS011;36550;50.472;19.744;2023-08-21T11:06:33;11.80;;;10.50;;
50301;SDS011;36550;50.472;19.744;2023-08-21T11:09:17;13.70;;;10.80;;
50301;SDS011;36550;50.472;19.744;2023-08-21T11:14:50;11.00;;;9.20;;
50301;SDS011;36550;50.472;19.744;2023-08-21T11:17:35;12.60;;;11.30;;
50301;SDS011;36550;50.472;19.744;2023-08-21T11:20:18;13.80;;;10.80;;
50301;SDS011;36550;50.472;19.744;2023-08-21T11:23:04;12.60;;;10.00;;
50301;SDS011;36550;50.472;19.744;2023-08-21T11:25:50;13.80;;;9.70;;
50301;SDS011;36550;50.472;19.744;2023-08-21T11:28:36;11.70;;;9.20;;
50301;SDS011;36550;50.472;19.744;2023-08-21T11:31:22;11.40;;;9.40;;
50301;SDS011;36550;50.472;19.744;2023-08-21T11:34:06;10.00;;;9.00;;
50301;SDS011;36550;50.472;19.744;2023-08-21T11:36:50;14.80;;;9.30;;
50301;SDS011;36550;50.472;19.744;2023-08-21T11:39:38;10.90;;;9.90;;
50301;SDS011;36550;50.472;19.744;2023-08-21T11:42:30;10.90;;;8.60;;
50301;SDS011;36550;50.472;19.744;2023-08-21T11:45:16;12.20;;;9.60;;
50301;SDS011;36550;50.472;19.744;2023-08-21T11:48:06;11.10;;;8.90;;
50301;SDS011;36550;50.472;19.744;2023-08-21T11:50:50;9.40;;;8.50;;
50301;SDS011;36550;50.472;19.744;2023-08-21T11:53:38;9.80;;;8.80;;
50301;SDS011;36550;50.472;19.744;2023-08-21T11:56:27;9.30;;;8.50;;
50301;SDS011;36550;50.472;19.744;2023-08-21T11:59:20;12.00;;;8.50;;
50301;SDS011;36550;50.472;19.744;2023-08-21T12:02:09;10.50;;;8.20;;
50301;SDS011;36550;50.472;19.744;2023-08-21T12:05:04;9.90;;;8.70;;
50301;SDS011;36550;50.472;19.744;2023-08-21T12:07:49;11.50;;;8.70;;
50301;SDS011;36550;50.472;19.744;2023-08-21T12:10:33;11.50;;;8.50;;
50301;SDS011;36550;50.472;19.744;2023-08-21T12:13:17;9.90;;;8.60;;
50301;SDS011;36550;50.472;19.744;2023-08-21T12:16:01;10.00;;;8.70;;
50301;SDS011;36550;50.472;19.744;2023-08-21T12:18:46;12.30;;;8.60;;
50301;SDS011;36550;50.472;19.744;2023-08-21T12:21:30;9.20;;;8.20;;
50301;SDS011;36550;50.472;19.744;2023-08-21T12:24:17;9.10;;;7.60;;
50301;SDS011;36550;50.472;19.744;2023-08-21T12:27:01;12.40;;;8.70;;
50301;SDS011;36550;50.472;19.744;2023-08-21T12:29:46;9.10;;;8.30;;
50301;SDS011;36550;50.472;19.744;2023-08-21T12:32:30;9.70;;;8.50;;
50301;SDS011;36550;50.472;19.744;2023-08-21T12:35:14;9.10;;;8.20;;
50301;SDS011;36550;50.472;19.744;2023-08-21T12:37:58;10.60;;;8.70;;
50301;SDS011;36550;50.472;19.744;2023-08-21T12:40:42;9.40;;;8.40;;
50301;SDS011;36550;50.472;19.744;2023-08-21T12:43:26;10.10;;;8.90;;
50301;SDS011;36550;50.472;19.744;2023-08-21T12:46:10;9.30;;;8.30;;
50301;SDS011;36550;50.472;19.744;2023-08-21T12:48:54;10.40;;;9.30;;
50301;SDS011;36550;50.472;19.744;2023-08-21T12:51:39;9.70;;;8.60;;
50301;SDS011;36550;50.472;19.744;2023-08-21T12:54:23;11.80;;;9.60;;
50301;SDS011;36550;50.472;19.744;2023-08-21T12:57:08;13.10;;;9.60;;
50301;SDS011;36550;50.472;19.744;2023-08-21T12:59:54;11.50;;;9.50;;
50301;SDS011;36550;50.472;19.744;2023-08-21T13:02:39;10.90;;;9.80;;
50301;SDS011;36550;50.472;19.744;2023-08-21T13:05:23;11.20;;;9.60;;
50301;SDS011;36550;50.472;19.744;2023-08-21T13:08:08;13.80;;;9.30;;
50301;SDS011;36550;50.472;19.744;2023-08-21T13:10:52;10.80;;;9.30;;
50301;SDS011;36550;50.472;19.744;2023-08-21T13:13:36;10.70;;;9.20;;
50301;SDS011;36550;50.472;19.744;2023-08-21T13:16:21;11.50;;;9.60;;
50301;SDS011;36550;50.472;19.744;2023-08-21T13:19:05;16.90;;;9.90;;
50301;SDS011;36550;50.472;19.744;2023-08-21T13:21:49;11.20;;;10.00;;
50301;SDS011;36550;50.472;19.744;2023-08-21T13:24:33;11.40;;;9.90;;
50301;SDS011;36550;50.472;19.744;2023-08-21T13:27:17;10.90;;;9.70;;
50301;SDS011;36550;50.472;19.744;2023-08-21T13:30:01;15.40;;;10.20;;
50301;SDS011;36550;50.472;19.744;2023-08-21T13:32:46;9.70;;;8.60;;
50301;SDS011;36550;50.472;19.744;2023-08-21T13:35:30;11.90;;;10.10;;
50301;SDS011;36550;50.472;19.744;2023-08-21T13:40:59;11.00;;;9.90;;
50301;SDS011;36550;50.472;19.744;2023-08-21T13:43:44;12.00;;;9.50;;
50301;SDS011;36550;50.472;19.744;2023-08-21T13:46:27;10.60;;;9.50;;
50301;SDS011;36550;50.472;19.744;2023-08-21T13:49:11;10.80;;;9.60;;
50301;SDS011;36550;50.472;19.744;2023-08-21T13:51:55;11.60;;;9.90;;
50301;SDS011;36550;50.472;19.744;2023-08-21T13:54:39;13.80;;;10.30;;
50301;SDS011;36550;50.472;19.744;2023-08-21T13:57:23;10.90;;;9.80;;
50301;SDS011;36550;50.472;19.744;2023-08-21T14:00:08;13.80;;;10.40;;
50301;SDS011;36550;50.472;19.744;2023-08-21T14:02:57;11.20;;;10.10;;
50301;SDS011;36550;50.472;19.744;2023-08-21T14:05:41;11.20;;;9.70;;
50301;SDS011;36550;50.472;19.744;2023-08-21T14:08:25;10.50;;;9.50;;
50301;SDS011;36550;50.472;19.744;2023-08-21T14:11:09;11.20;;;10.10;;
50301;SDS011;36550;50.472;19.744;2023-08-21T14:13:53;11.30;;;10.20;;
50301;SDS011;36550;50.472;19.744;2023-08-21T14:16:37;12.90;;;11.50;;
50301;SDS011;36550;50.472;19.744;2023-08-21T14:19:21;12.70;;;11.40;;
50301;SDS011;36550;50.472;19.744;2023-08-21T14:22:05;12.30;;;11.10;;
50301;SDS011;36550;50.472;19.744;2023-08-21T14:24:49;13.60;;;10.30;;
50301;SDS011;36550;50.472;19.744;2023-08-21T14:27:33;12.10;;;10.90;;
50301;SDS011;36550;50.472;19.744;2023-08-21T14:30:17;14.40;;;10.80;;
50301;SDS011;36550;50.472;19.744;2023-08-21T14:33:01;12.60;;;9.80;;
50301;SDS011;36550;50.472;19.744;2023-08-21T14:38:30;10.40;;;9.40;;
50301;SDS011;36550;50.472;19.744;2023-08-21T14:41:14;11.20;;;9.60;;
50301;SDS011;36550;50.472;19.744;2023-08-21T14:43:58;13.80;;;10.30;;
50301;SDS011;36550;50.472;19.744;2023-08-21T14:46:42;11.20;;;9.80;;
50301;SDS011;36550;50.472;19.744;2023-08-21T14:49:26;11.70;;;10.50;;
50301;SDS011;36550;50.472;19.744;2023-08-21T14:52:10;12.00;;;10.50;;
50301;SDS011;36550;50.472;19.744;2023-08-21T14:54:54;13.50;;;10.40;;
50301;SDS011;36550;50.472;19.744;2023-08-21T14:57:39;11.60;;;9.80;;
50301;SDS011;36550;50.472;19.744;2023-08-21T15:00:23;12.90;;;10.40;;
50301;SDS011;36550;50.472;19.744;2023-08-21T15:03:08;11.50;;;10.30;;
50301;SDS011;36550;50.472;19.744;2023-08-21T15:05:51;11.40;;;10.30;;
50301;SDS011;36550;50.472;19.744;2023-08-21T15:08:37;15.20;;;10.80;;
50301;SDS011;36550;50.472;19.744;2023-08-21T15:11:22;11.40;;;10.00;;
50301;SDS011;36550;50.472;19.744;2023-08-21T15:14:10;14.50;;;10.00;;
50301;SDS011;36550;50.472;19.744;2023-08-21T15:16:58;10.90;;;9.80;;
50301;SDS011;36550;50.472;19.744;2023-08-21T15:19:41;12.50;;;10.00;;
50301;SDS011;36550;50.472;19.744;2023-08-21T15:22:25;11.70;;;9.20;;
50301;SDS011;36550;50.472;19.744;2023-08-21T15:25:09;10.90;;;9.80;;
50301;SDS011;36550;50.472;19.744;2023-08-21T15:27:55;10.10;;;9.10;;
50301;SDS011;36550;50.472;19.744;2023-08-21T15:30:39;10.40;;;9.30;;
50301;SDS011;36550;50.472;19.744;2023-08-21T15:33:23;10.90;;;9.50;;
50301;SDS011;36550;50.472;19.744;2023-08-21T15:36:06;10.50;;;9.40;;
50301;SDS011;36550;50.472;19.744;2023-08-21T15:38:51;10.90;;;9.20;;
50301;SDS011;36550;50.472;19.744;2023-08-21T15:41:35;10.00;;;8.40;;
50301;SDS011;36550;50.472;19.744;2023-08-21T15:44:19;10.40;;;8.60;;
50301;SDS011;36550;50.472;19.744;2023-08-21T15:47:03;10.30;;;9.10;;
50301;SDS011;36550;50.472;19.744;2023-08-21T15:49:47;11.40;;;8.20;;
50301;SDS011;36550;50.472;19.744;2023-08-21T15:52:32;8.40;;;7.60;;
50301;SDS011;36550;50.472;19.744;2023-08-21T15:55:16;10.50;;;8.10;;
50301;SDS011;36550;50.472;19.744;2023-08-21T16:00:45;8.60;;;7.70;;
50301;SDS011;36550;50.472;19.744;2023-08-21T16:03:29;8.50;;;7.70;;
50301;SDS011;36550;50.472;19.744;2023-08-21T16:06:13;7.70;;;6.90;;
50301;SDS011;36550;50.472;19.744;2023-08-21T16:08:57;9.30;;;7.20;;
50301;SDS011;36550;50.472;19.744;2023-08-21T16:11:43;8.20;;;7.20;;
50301;SDS011;36550;50.472;19.744;2023-08-21T16:17:12;11.80;;;7.80;;
50301;SDS011;36550;50.472;19.744;2023-08-21T16:19:56;8.00;;;7.20;;
50301;SDS011;36550;50.472;19.744;2023-08-21T16:22:44;9.20;;;7.20;;
50301;SDS011;36550;50.472;19.744;2023-08-21T16:25:28;7.80;;;7.00;;